Airport View

Enter AWOS ICAO identifier for current METAR.

ex. KFNL

KOWP 210055Z AUTO 18008KT 10SM SCT017 BKN023 26/23 A2995 RMK AO2 T02610225 PWINO

21 Sep 2019 01:10

Frequency: 118.325

Phone: 918-246-2635

Other Area AWOS: KRVS - KTUL - KOKM - KCUH

TAF KRVS 202328Z 2100/2124 16009KT P6SM SCT025 BKN050 FM210600 17009KT P6SM OVC012 FM210900 17009KT P6SM OVC007 TEMPO 2110/2114 3SM -RA BR FM211800 18014G21KT P6SM SCT015 BKN050 PROB30 2118/2124 3SM -TSRA BKN015CB